Terminal Aerodrome Forecast
Issued by NWS

Home | Current Version | Previous Version | Text Only | Print | Product List | Glossary On
Versions: 1 2 3 4 5 6 7 8 9 10 11 12 13 14 15 16 17 18 19 20 21 22 23 24 25 26 27 28 29 30 31 32 33 34 35 36
000
FTUS43 KGRB 222336
TAFRHI
TAF
KRHI 222336Z 2300/2324 21005KT P6SM SCT100 BKN200
     FM230100 22003KT P6SM SKC
     FM230500 20003KT P6SM SCT250
      TEMPO 2308/2311 2SM BR
     FM231100 18005KT P6SM BKN100 BKN250
     FM231500 21009KT P6SM OVC090
     FM231800 23007KT P6SM SCT020 BKN080 PROB30 2319/2323 5SM -SHRA
      BR BKN020=

USA.gov is the U.S. government's official web portal to all federal, state and local government web resources and services.